sensor_id;sensor_type;location;lat;lon;timestamp;P1;durP1;ratioP1;P2;durP2;ratioP2
14472;SDS011;7322;50.872;4.386;2022-12-07T00:01:27;2.87;;;2.23;;
14472;SDS011;7322;50.872;4.386;2022-12-07T00:04:08;2.53;;;2.30;;
14472;SDS011;7322;50.872;4.386;2022-12-07T00:06:56;2.57;;;2.17;;
14472;SDS011;7322;50.872;4.386;2022-12-07T00:09:38;2.53;;;2.33;;
14472;SDS011;7322;50.872;4.386;2022-12-07T00:12:14;2.57;;;2.37;;
14472;SDS011;7322;50.872;4.386;2022-12-07T00:14:53;2.53;;;2.27;;
14472;SDS011;7322;50.872;4.386;2022-12-07T00:25:41;3.43;;;2.10;;
14472;SDS011;7322;50.872;4.386;2022-12-07T00:28:08;3.27;;;2.37;;
14472;SDS011;7322;50.872;4.386;2022-12-07T00:30:40;3.00;;;2.40;;
14472;SDS011;7322;50.872;4.386;2022-12-07T00:36:08;2.20;;;2.00;;
14472;SDS011;7322;50.872;4.386;2022-12-07T00:38:38;2.53;;;2.30;;
14472;SDS011;7322;50.872;4.386;2022-12-07T00:41:09;2.70;;;2.10;;
14472;SDS011;7322;50.872;4.386;2022-12-07T00:43:39;3.80;;;2.20;;
14472;SDS011;7322;50.872;4.386;2022-12-07T00:46:09;3.47;;;2.50;;
14472;SDS011;7322;50.872;4.386;2022-12-07T00:48:49;3.07;;;2.37;;
14472;SDS011;7322;50.872;4.386;2022-12-07T00:51:35;3.37;;;2.20;;
14472;SDS011;7322;50.872;4.386;2022-12-07T00:54:03;2.27;;;2.07;;
14472;SDS011;7322;50.872;4.386;2022-12-07T00:56:34;3.30;;;2.43;;
14472;SDS011;7322;50.872;4.386;2022-12-07T00:59:10;2.80;;;2.23;;
14472;SDS011;7322;50.872;4.386;2022-12-07T01:04:33;2.57;;;2.00;;
14472;SDS011;7322;50.872;4.386;2022-12-07T01:07:18;2.20;;;2.00;;
14472;SDS011;7322;50.872;4.386;2022-12-07T01:12:33;2.50;;;2.30;;
14472;SDS011;7322;50.872;4.386;2022-12-07T01:15:02;2.63;;;2.30;;
14472;SDS011;7322;50.872;4.386;2022-12-07T01:17:31;2.63;;;2.17;;
14472;SDS011;7322;50.872;4.386;2022-12-07T01:25:38;2.60;;;2.40;;
14472;SDS011;7322;50.872;4.386;2022-12-07T01:36:45;2.37;;;2.17;;
14472;SDS011;7322;50.872;4.386;2022-12-07T01:39:15;2.37;;;2.17;;
14472;SDS011;7322;50.872;4.386;2022-12-07T01:41:45;2.60;;;2.40;;
14472;SDS011;7322;50.872;4.386;2022-12-07T01:44:14;2.50;;;2.17;;
14472;SDS011;7322;50.872;4.386;2022-12-07T01:47:01;2.27;;;2.00;;
14472;SDS011;7322;50.872;4.386;2022-12-07T01:49:33;2.23;;;2.00;;
14472;SDS011;7322;50.872;4.386;2022-12-07T01:52:18;2.60;;;2.20;;
14472;SDS011;7322;50.872;4.386;2022-12-07T01:54:57;2.47;;;2.13;;
14472;SDS011;7322;50.872;4.386;2022-12-07T01:57:27;2.97;;;2.40;;
14472;SDS011;7322;50.872;4.386;2022-12-07T02:00:03;2.70;;;2.30;;
14472;SDS011;7322;50.872;4.386;2022-12-07T02:05:34;2.23;;;2.03;;
14472;SDS011;7322;50.872;4.386;2022-12-07T02:08:06;3.13;;;2.20;;
14472;SDS011;7322;50.872;4.386;2022-12-07T02:10:39;4.37;;;2.33;;
14472;SDS011;7322;50.872;4.386;2022-12-07T02:13:18;2.30;;;2.10;;
14472;SDS011;7322;50.872;4.386;2022-12-07T02:21:54;2.73;;;2.20;;
14472;SDS011;7322;50.872;4.386;2022-12-07T02:24:45;2.13;;;1.80;;
14472;SDS011;7322;50.872;4.386;2022-12-07T02:27:36;2.60;;;2.13;;
14472;SDS011;7322;50.872;4.386;2022-12-07T02:30:19;2.43;;;2.17;;
14472;SDS011;7322;50.872;4.386;2022-12-07T02:32:49;2.17;;;1.97;;
14472;SDS011;7322;50.872;4.386;2022-12-07T02:38:08;2.20;;;2.00;;
14472;SDS011;7322;50.872;4.386;2022-12-07T02:40:41;2.40;;;1.97;;
14472;SDS011;7322;50.872;4.386;2022-12-07T02:46:14;3.47;;;2.30;;
14472;SDS011;7322;50.872;4.386;2022-12-07T03:04:58;2.13;;;1.93;;
14472;SDS011;7322;50.872;4.386;2022-12-07T03:07:38;2.23;;;1.97;;
14472;SDS011;7322;50.872;4.386;2022-12-07T03:16:04;2.93;;;2.20;;
14472;SDS011;7322;50.872;4.386;2022-12-07T03:21:08;2.30;;;1.87;;
14472;SDS011;7322;50.872;4.386;2022-12-07T03:23:51;2.77;;;2.23;;
14472;SDS011;7322;50.872;4.386;2022-12-07T03:26:24;2.13;;;1.93;;
14472;SDS011;7322;50.872;4.386;2022-12-07T03:28:59;2.53;;;1.90;;
14472;SDS011;7322;50.872;4.386;2022-12-07T03:31:40;2.07;;;1.80;;
14472;SDS011;7322;50.872;4.386;2022-12-07T03:34:12;2.17;;;1.90;;
14472;SDS011;7322;50.872;4.386;2022-12-07T03:40:00;2.97;;;2.20;;
14472;SDS011;7322;50.872;4.386;2022-12-07T03:54:08;2.03;;;1.87;;
14472;SDS011;7322;50.872;4.386;2022-12-07T03:56:50;2.23;;;2.03;;
14472;SDS011;7322;50.872;4.386;2022-12-07T04:01:56;2.60;;;2.17;;
14472;SDS011;7322;50.872;4.386;2022-12-07T04:04:29;2.53;;;2.13;;
14472;SDS011;7322;50.872;4.386;2022-12-07T04:12:30;2.20;;;2.00;;
14472;SDS011;7322;50.872;4.386;2022-12-07T04:15:12;2.40;;;1.90;;
14472;SDS011;7322;50.872;4.386;2022-12-07T04:20:46;1.90;;;1.80;;
14472;SDS011;7322;50.872;4.386;2022-12-07T04:26:14;2.00;;;1.80;;
14472;SDS011;7322;50.872;4.386;2022-12-07T04:29:01;2.00;;;1.80;;
14472;SDS011;7322;50.872;4.386;2022-12-07T04:31:30;2.63;;;2.13;;
14472;SDS011;7322;50.872;4.386;2022-12-07T04:34:00;2.17;;;1.97;;
14472;SDS011;7322;50.872;4.386;2022-12-07T04:36:32;2.07;;;1.80;;
14472;SDS011;7322;50.872;4.386;2022-12-07T04:42:03;2.20;;;2.00;;
14472;SDS011;7322;50.872;4.386;2022-12-07T04:47:15;2.17;;;1.97;;
14472;SDS011;7322;50.872;4.386;2022-12-07T04:49:43;2.10;;;1.90;;
14472;SDS011;7322;50.872;4.386;2022-12-07T04:52:18;2.67;;;2.17;;
14472;SDS011;7322;50.872;4.386;2022-12-07T04:54:49;2.30;;;1.70;;
14472;SDS011;7322;50.872;4.386;2022-12-07T04:57:17;2.17;;;1.97;;
14472;SDS011;7322;50.872;4.386;2022-12-07T04:59:58;3.03;;;2.17;;
14472;SDS011;7322;50.872;4.386;2022-12-07T05:02:44;2.27;;;2.00;;
14472;SDS011;7322;50.872;4.386;2022-12-07T05:05:12;2.07;;;1.70;;
14472;SDS011;7322;50.872;4.386;2022-12-07T05:10:48;2.20;;;2.00;;
14472;SDS011;7322;50.872;4.386;2022-12-07T05:15:59;2.30;;;2.00;;
14472;SDS011;7322;50.872;4.386;2022-12-07T05:18:39;2.03;;;1.83;;
14472;SDS011;7322;50.872;4.386;2022-12-07T05:21:20;2.13;;;1.93;;
14472;SDS011;7322;50.872;4.386;2022-12-07T05:26:40;2.30;;;1.97;;
14472;SDS011;7322;50.872;4.386;2022-12-07T05:29:09;2.17;;;1.90;;
14472;SDS011;7322;50.872;4.386;2022-12-07T05:31:47;2.00;;;1.80;;
14472;SDS011;7322;50.872;4.386;2022-12-07T05:34:22;2.00;;;1.80;;
14472;SDS011;7322;50.872;4.386;2022-12-07T05:36:59;2.00;;;1.80;;
14472;SDS011;7322;50.872;4.386;2022-12-07T05:48:09;2.77;;;1.90;;
14472;SDS011;7322;50.872;4.386;2022-12-07T05:50:38;2.73;;;2.00;;
14472;SDS011;7322;50.872;4.386;2022-12-07T05:53:08;2.40;;;1.90;;
14472;SDS011;7322;50.872;4.386;2022-12-07T05:55:51;2.10;;;1.87;;
14472;SDS011;7322;50.872;4.386;2022-12-07T05:58:20;2.10;;;1.83;;
14472;SDS011;7322;50.872;4.386;2022-12-07T06:01:14;2.73;;;2.17;;
14472;SDS011;7322;50.872;4.386;2022-12-07T06:03:46;1.70;;;1.60;;
14472;SDS011;7322;50.872;4.386;2022-12-07T06:06:21;2.10;;;1.80;;
14472;SDS011;7322;50.872;4.386;2022-12-07T06:09:05;1.77;;;1.53;;
14472;SDS011;7322;50.872;4.386;2022-12-07T06:14:55;1.83;;;1.63;;
14472;SDS011;7322;50.872;4.386;2022-12-07T06:17:23;1.97;;;1.73;;
14472;SDS011;7322;50.872;4.386;2022-12-07T06:19:52;1.80;;;1.70;;
14472;SDS011;7322;50.872;4.386;2022-12-07T06:22:20;1.87;;;1.67;;
14472;SDS011;7322;50.872;4.386;2022-12-07T06:24:47;1.70;;;1.60;;
14472;SDS011;7322;50.872;4.386;2022-12-07T06:27:14;1.60;;;1.47;;
14472;SDS011;7322;50.872;4.386;2022-12-07T06:29:49;2.03;;;1.57;;
14472;SDS011;7322;50.872;4.386;2022-12-07T06:32:17;2.20;;;2.00;;
14472;SDS011;7322;50.872;4.386;2022-12-07T06:34:45;1.87;;;1.60;;
14472;SDS011;7322;50.872;4.386;2022-12-07T06:37:14;1.70;;;1.60;;
14472;SDS011;7322;50.872;4.386;2022-12-07T06:39:41;2.50;;;1.77;;
14472;SDS011;7322;50.872;4.386;2022-12-07T06:42:09;2.13;;;1.80;;
14472;SDS011;7322;50.872;4.386;2022-12-07T06:44:37;2.00;;;1.60;;
14472;SDS011;7322;50.872;4.386;2022-12-07T06:47:06;2.83;;;1.50;;
14472;SDS011;7322;50.872;4.386;2022-12-07T06:49:34;1.97;;;1.77;;
14472;SDS011;7322;50.872;4.386;2022-12-07T06:52:01;2.07;;;1.70;;
14472;SDS011;7322;50.872;4.386;2022-12-07T06:54:32;1.57;;;1.47;;
14472;SDS011;7322;50.872;4.386;2022-12-07T06:57:00;2.77;;;1.80;;
14472;SDS011;7322;50.872;4.386;2022-12-07T06:59:28;1.77;;;1.67;;
14472;SDS011;7322;50.872;4.386;2022-12-07T07:01:55;2.43;;;1.60;;
14472;SDS011;7322;50.872;4.386;2022-12-07T07:04:22;1.83;;;1.60;;
14472;SDS011;7322;50.872;4.386;2022-12-07T07:06:57;3.03;;;1.83;;
14472;SDS011;7322;50.872;4.386;2022-12-07T07:09:24;1.80;;;1.70;;
14472;SDS011;7322;50.872;4.386;2022-12-07T07:12:01;1.87;;;1.77;;
14472;SDS011;7322;50.872;4.386;2022-12-07T07:14:36;2.23;;;1.60;;
14472;SDS011;7322;50.872;4.386;2022-12-07T07:17:09;1.87;;;1.67;;
14472;SDS011;7322;50.872;4.386;2022-12-07T07:19:36;2.20;;;1.67;;
14472;SDS011;7322;50.872;4.386;2022-12-07T07:22:13;1.97;;;1.70;;
14472;SDS011;7322;50.872;4.386;2022-12-07T07:24:45;1.70;;;1.60;;
14472;SDS011;7322;50.872;4.386;2022-12-07T07:27:15;2.00;;;1.60;;
14472;SDS011;7322;50.872;4.386;2022-12-07T07:29:44;2.27;;;1.77;;
14472;SDS011;7322;50.872;4.386;2022-12-07T07:32:18;2.40;;;2.07;;
14472;SDS011;7322;50.872;4.386;2022-12-07T07:34:49;2.67;;;1.87;;
14472;SDS011;7322;50.872;4.386;2022-12-07T07:37:28;2.13;;;1.90;;
14472;SDS011;7322;50.872;4.386;2022-12-07T07:39:57;3.00;;;1.87;;
14472;SDS011;7322;50.872;4.386;2022-12-07T07:42:35;2.53;;;1.80;;
14472;SDS011;7322;50.872;4.386;2022-12-07T07:45:04;1.70;;;1.60;;
14472;SDS011;7322;50.872;4.386;2022-12-07T07:47:41;2.30;;;1.80;;
14472;SDS011;7322;50.872;4.386;2022-12-07T07:50:18;2.17;;;1.97;;
14472;SDS011;7322;50.872;4.386;2022-12-07T07:58:28;2.37;;;1.63;;
14472;SDS011;7322;50.872;4.386;2022-12-07T08:01:03;3.47;;;1.90;;
14472;SDS011;7322;50.872;4.386;2022-12-07T08:03:36;1.97;;;1.77;;
14472;SDS011;7322;50.872;4.386;2022-12-07T08:06:03;2.03;;;1.67;;
14472;SDS011;7322;50.872;4.386;2022-12-07T08:08:38;3.13;;;1.90;;
14472;SDS011;7322;50.872;4.386;2022-12-07T08:11:08;2.13;;;1.93;;
14472;SDS011;7322;50.872;4.386;2022-12-07T08:13:46;2.57;;;1.97;;
14472;SDS011;7322;50.872;4.386;2022-12-07T08:16:18;2.47;;;2.00;;
14472;SDS011;7322;50.872;4.386;2022-12-07T08:21:58;3.10;;;2.10;;
14472;SDS011;7322;50.872;4.386;2022-12-07T08:24:32;2.73;;;2.07;;
14472;SDS011;7322;50.872;4.386;2022-12-07T08:27:04;2.40;;;1.67;;
14472;SDS011;7322;50.872;4.386;2022-12-07T08:29:44;2.63;;;2.20;;
14472;SDS011;7322;50.872;4.386;2022-12-07T08:34:48;1.93;;;1.73;;
14472;SDS011;7322;50.872;4.386;2022-12-07T08:37:16;3.23;;;1.60;;
14472;SDS011;7322;50.872;4.386;2022-12-07T08:39:59;2.10;;;1.80;;
14472;SDS011;7322;50.872;4.386;2022-12-07T08:45:08;2.63;;;2.10;;
14472;SDS011;7322;50.872;4.386;2022-12-07T08:47:39;3.63;;;1.93;;
14472;SDS011;7322;50.872;4.386;2022-12-07T08:53:00;2.73;;;2.00;;
14472;SDS011;7322;50.872;4.386;2022-12-07T08:55:30;1.87;;;1.70;;
14472;SDS011;7322;50.872;4.386;2022-12-07T08:57:59;2.63;;;1.87;;
14472;SDS011;7322;50.872;4.386;2022-12-07T09:00:33;2.80;;;2.00;;
14472;SDS011;7322;50.872;4.386;2022-12-07T09:03:07;2.90;;;1.90;;
14472;SDS011;7322;50.872;4.386;2022-12-07T09:05:36;2.40;;;2.10;;
14472;SDS011;7322;50.872;4.386;2022-12-07T09:08:05;2.57;;;2.03;;
14472;SDS011;7322;50.872;4.386;2022-12-07T09:10:36;2.27;;;1.90;;
14472;SDS011;7322;50.872;4.386;2022-12-07T09:13:10;2.37;;;1.87;;
14472;SDS011;7322;50.872;4.386;2022-12-07T09:15:39;2.73;;;2.03;;
14472;SDS011;7322;50.872;4.386;2022-12-07T09:20:37;2.77;;;1.93;;
14472;SDS011;7322;50.872;4.386;2022-12-07T09:23:05;2.93;;;1.90;;
14472;SDS011;7322;50.872;4.386;2022-12-07T09:25:36;1.90;;;1.70;;
14472;SDS011;7322;50.872;4.386;2022-12-07T09:31:08;2.70;;;1.90;;
14472;SDS011;7322;50.872;4.386;2022-12-07T09:33:38;3.10;;;1.83;;
14472;SDS011;7322;50.872;4.386;2022-12-07T09:36:14;2.27;;;2.00;;
14472;SDS011;7322;50.872;4.386;2022-12-07T09:38:41;2.10;;;1.90;;
14472;SDS011;7322;50.872;4.386;2022-12-07T09:43:47;2.83;;;1.80;;
14472;SDS011;7322;50.872;4.386;2022-12-07T09:46:25;2.27;;;1.97;;
14472;SDS011;7322;50.872;4.386;2022-12-07T09:48:53;2.20;;;1.67;;
14472;SDS011;7322;50.872;4.386;2022-12-07T09:51:22;2.43;;;2.07;;
14472;SDS011;7322;50.872;4.386;2022-12-07T09:53:51;3.13;;;1.83;;
14472;SDS011;7322;50.872;4.386;2022-12-07T09:56:20;2.10;;;1.90;;
14472;SDS011;7322;50.872;4.386;2022-12-07T09:59:09;2.27;;;1.80;;
14472;SDS011;7322;50.872;4.386;2022-12-07T10:01:43;2.43;;;1.90;;
14472;SDS011;7322;50.872;4.386;2022-12-07T10:04:15;2.63;;;1.80;;
14472;SDS011;7322;50.872;4.386;2022-12-07T10:06:44;2.13;;;1.80;;
14472;SDS011;7322;50.872;4.386;2022-12-07T10:09:13;2.53;;;1.80;;
14472;SDS011;7322;50.872;4.386;2022-12-07T10:12:01;2.40;;;1.90;;
14472;SDS011;7322;50.872;4.386;2022-12-07T10:20:36;2.17;;;1.97;;
14472;SDS011;7322;50.872;4.386;2022-12-07T10:25:41;2.40;;;2.00;;
14472;SDS011;7322;50.872;4.386;2022-12-07T10:31:24;2.40;;;1.93;;
14472;SDS011;7322;50.872;4.386;2022-12-07T10:33:53;2.17;;;1.93;;
14472;SDS011;7322;50.872;4.386;2022-12-07T10:36:23;2.00;;;1.67;;
14472;SDS011;7322;50.872;4.386;2022-12-07T10:38:52;2.83;;;1.80;;
14472;SDS011;7322;50.872;4.386;2022-12-07T10:41:25;2.00;;;1.70;;
14472;SDS011;7322;50.872;4.386;2022-12-07T10:43:58;2.37;;;1.80;;
14472;SDS011;7322;50.872;4.386;2022-12-07T10:59:12;2.07;;;1.80;;
14472;SDS011;7322;50.872;4.386;2022-12-07T11:02:07;1.80;;;1.70;;
14472;SDS011;7322;50.872;4.386;2022-12-07T11:04:54;2.27;;;1.90;;
14472;SDS011;7322;50.872;4.386;2022-12-07T11:07:33;2.20;;;2.00;;
14472;SDS011;7322;50.872;4.386;2022-12-07T11:10:12;2.07;;;1.83;;
14472;SDS011;7322;50.872;4.386;2022-12-07T11:12:47;2.10;;;1.90;;
14472;SDS011;7322;50.872;4.386;2022-12-07T11:15:26;3.23;;;2.10;;
14472;SDS011;7322;50.872;4.386;2022-12-07T11:18:04;2.40;;;1.80;;
14472;SDS011;7322;50.872;4.386;2022-12-07T11:20:37;1.70;;;1.60;;
14472;SDS011;7322;50.872;4.386;2022-12-07T11:23:13;2.20;;;1.63;;
14472;SDS011;7322;50.872;4.386;2022-12-07T11:25:49;2.30;;;1.97;;
14472;SDS011;7322;50.872;4.386;2022-12-07T11:28:26;2.20;;;1.80;;
14472;SDS011;7322;50.872;4.386;2022-12-07T11:31:07;2.13;;;1.77;;
14472;SDS011;7322;50.872;4.386;2022-12-07T11:33:43;2.00;;;1.87;;
14472;SDS011;7322;50.872;4.386;2022-12-07T11:36:17;2.90;;;2.10;;
14472;SDS011;7322;50.872;4.386;2022-12-07T11:38:58;2.47;;;2.10;;
14472;SDS011;7322;50.872;4.386;2022-12-07T11:41:30;2.10;;;1.80;;
14472;SDS011;7322;50.872;4.386;2022-12-07T11:44:04;2.57;;;1.70;;
14472;SDS011;7322;50.872;4.386;2022-12-07T11:46:39;1.83;;;1.60;;
14472;SDS011;7322;50.872;4.386;2022-12-07T11:49:14;1.70;;;1.57;;
14472;SDS011;7322;50.872;4.386;2022-12-07T11:51:47;2.87;;;1.83;;
14472;SDS011;7322;50.872;4.386;2022-12-07T11:54:25;1.73;;;1.63;;
14472;SDS011;7322;50.872;4.386;2022-12-07T11:56:56;2.93;;;2.10;;
14472;SDS011;7322;50.872;4.386;2022-12-07T11:59:31;2.13;;;1.93;;
14472;SDS011;7322;50.872;4.386;2022-12-07T12:02:11;2.00;;;1.80;;
14472;SDS011;7322;50.872;4.386;2022-12-07T12:04:44;2.07;;;1.70;;
14472;SDS011;7322;50.872;4.386;2022-12-07T12:07:19;1.70;;;1.60;;
14472;SDS011;7322;50.872;4.386;2022-12-07T12:09:57;2.63;;;1.87;;
14472;SDS011;7322;50.872;4.386;2022-12-07T12:15:38;2.20;;;1.70;;
14472;SDS011;7322;50.872;4.386;2022-12-07T12:21:09;1.97;;;1.77;;
14472;SDS011;7322;50.872;4.386;2022-12-07T12:23:40;2.37;;;1.90;;
14472;SDS011;7322;50.872;4.386;2022-12-07T12:26:14;2.60;;;2.10;;
14472;SDS011;7322;50.872;4.386;2022-12-07T12:28:49;2.13;;;1.93;;
14472;SDS011;7322;50.872;4.386;2022-12-07T12:31:31;2.07;;;1.50;;
14472;SDS011;7322;50.872;4.386;2022-12-07T12:36:59;1.87;;;1.60;;
14472;SDS011;7322;50.872;4.386;2022-12-07T12:39:27;2.10;;;1.90;;
14472;SDS011;7322;50.872;4.386;2022-12-07T12:41:57;2.40;;;1.70;;
14472;SDS011;7322;50.872;4.386;2022-12-07T12:47:55;1.70;;;1.40;;
14472;SDS011;7322;50.872;4.386;2022-12-07T12:50:26;1.80;;;1.67;;
14472;SDS011;7322;50.872;4.386;2022-12-07T12:52:57;2.27;;;1.73;;
14472;SDS011;7322;50.872;4.386;2022-12-07T13:01:56;2.17;;;1.73;;
14472;SDS011;7322;50.872;4.386;2022-12-07T13:04:51;1.80;;;1.70;;
14472;SDS011;7322;50.872;4.386;2022-12-07T13:13:30;2.37;;;1.60;;
14472;SDS011;7322;50.872;4.386;2022-12-07T13:18:59;2.10;;;1.40;;
14472;SDS011;7322;50.872;4.386;2022-12-07T13:21:42;2.03;;;1.80;;
14472;SDS011;7322;50.872;4.386;2022-12-07T13:24:12;2.03;;;1.70;;
14472;SDS011;7322;50.872;4.386;2022-12-07T13:26:42;2.10;;;1.80;;
14472;SDS011;7322;50.872;4.386;2022-12-07T13:29:11;2.53;;;1.60;;
14472;SDS011;7322;50.872;4.386;2022-12-07T13:31:40;2.13;;;1.80;;
14472;SDS011;7322;50.872;4.386;2022-12-07T13:34:28;2.40;;;1.87;;
14472;SDS011;7322;50.872;4.386;2022-12-07T13:36:57;2.03;;;1.60;;
14472;SDS011;7322;50.872;4.386;2022-12-07T13:39:28;2.00;;;1.80;;
14472;SDS011;7322;50.872;4.386;2022-12-07T13:41:56;3.57;;;1.63;;
14472;SDS011;7322;50.872;4.386;2022-12-07T13:44:24;2.40;;;1.60;;
14472;SDS011;7322;50.872;4.386;2022-12-07T13:46:54;2.00;;;1.67;;
14472;SDS011;7322;50.872;4.386;2022-12-07T13:49:28;2.63;;;1.80;;
14472;SDS011;7322;50.872;4.386;2022-12-07T13:52:13;2.07;;;1.70;;
14472;SDS011;7322;50.872;4.386;2022-12-07T13:54:58;2.30;;;1.63;;
14472;SDS011;7322;50.872;4.386;2022-12-07T14:00:34;2.40;;;1.80;;
14472;SDS011;7322;50.872;4.386;2022-12-07T14:06:24;3.67;;;1.47;;
14472;SDS011;7322;50.872;4.386;2022-12-07T14:09:16;2.87;;;1.80;;
14472;SDS011;7322;50.872;4.386;2022-12-07T14:11:46;2.10;;;1.57;;
14472;SDS011;7322;50.872;4.386;2022-12-07T14:14:16;2.20;;;1.70;;
14472;SDS011;7322;50.872;4.386;2022-12-07T14:16:57;1.53;;;1.40;;
14472;SDS011;7322;50.872;4.386;2022-12-07T14:19:44;1.97;;;1.50;;
14472;SDS011;7322;50.872;4.386;2022-12-07T14:22:23;1.90;;;1.70;;
14472;SDS011;7322;50.872;4.386;2022-12-07T14:27:51;2.47;;;1.80;;
14472;SDS011;7322;50.872;4.386;2022-12-07T14:30:22;1.60;;;1.30;;
14472;SDS011;7322;50.872;4.386;2022-12-07T14:32:51;2.17;;;1.70;;
14472;SDS011;7322;50.872;4.386;2022-12-07T14:35:20;3.10;;;1.90;;
14472;SDS011;7322;50.872;4.386;2022-12-07T14:37:49;2.30;;;1.70;;
14472;SDS011;7322;50.872;4.386;2022-12-07T14:40:17;2.83;;;1.70;;
14472;SDS011;7322;50.872;4.386;2022-12-07T14:42:46;2.30;;;1.80;;
14472;SDS011;7322;50.872;4.386;2022-12-07T14:45:18;1.90;;;1.60;;
14472;SDS011;7322;50.872;4.386;2022-12-07T14:47:46;2.30;;;1.90;;
14472;SDS011;7322;50.872;4.386;2022-12-07T14:50:14;2.40;;;1.70;;
14472;SDS011;7322;50.872;4.386;2022-12-07T14:52:47;2.20;;;1.47;;
14472;SDS011;7322;50.872;4.386;2022-12-07T14:55:20;1.90;;;1.63;;
14472;SDS011;7322;50.872;4.386;2022-12-07T14:57:55;2.13;;;1.47;;
14472;SDS011;7322;50.872;4.386;2022-12-07T15:00:26;2.07;;;1.40;;
14472;SDS011;7322;50.872;4.386;2022-12-07T15:02:54;2.20;;;1.70;;
14472;SDS011;7322;50.872;4.386;2022-12-07T15:05:23;2.10;;;1.60;;
14472;SDS011;7322;50.872;4.386;2022-12-07T15:07:52;1.73;;;1.50;;
14472;SDS011;7322;50.872;4.386;2022-12-07T15:10:20;2.77;;;1.50;;
14472;SDS011;7322;50.872;4.386;2022-12-07T15:12:48;1.60;;;1.40;;
14472;SDS011;7322;50.872;4.386;2022-12-07T15:15:16;2.10;;;1.60;;
14472;SDS011;7322;50.872;4.386;2022-12-07T15:17:44;2.03;;;1.70;;
14472;SDS011;7322;50.872;4.386;2022-12-07T15:20:13;2.30;;;1.53;;
14472;SDS011;7322;50.872;4.386;2022-12-07T15:22:57;2.10;;;1.90;;
14472;SDS011;7322;50.872;4.386;2022-12-07T15:25:25;2.50;;;1.60;;
14472;SDS011;7322;50.872;4.386;2022-12-07T15:34:12;2.13;;;1.73;;
14472;SDS011;7322;50.872;4.386;2022-12-07T15:36:39;2.37;;;1.47;;
14472;SDS011;7322;50.872;4.386;2022-12-07T15:41:50;2.33;;;1.50;;
14472;SDS011;7322;50.872;4.386;2022-12-07T15:44:17;1.80;;;1.50;;
14472;SDS011;7322;50.872;4.386;2022-12-07T15:47:01;2.50;;;1.50;;
14472;SDS011;7322;50.872;4.386;2022-12-07T15:49:31;2.00;;;1.43;;
14472;SDS011;7322;50.872;4.386;2022-12-07T15:51:58;2.13;;;1.70;;
14472;SDS011;7322;50.872;4.386;2022-12-07T15:54:26;2.40;;;1.53;;
14472;SDS011;7322;50.872;4.386;2022-12-07T15:56:54;2.90;;;1.90;;
14472;SDS011;7322;50.872;4.386;2022-12-07T15:59:22;1.90;;;1.60;;
14472;SDS011;7322;50.872;4.386;2022-12-07T16:01:49;1.93;;;1.60;;
14472;SDS011;7322;50.872;4.386;2022-12-07T16:04:16;2.47;;;1.77;;
14472;SDS011;7322;50.872;4.386;2022-12-07T16:06:45;1.70;;;1.40;;
14472;SDS011;7322;50.872;4.386;2022-12-07T16:09:13;2.83;;;1.53;;
14472;SDS011;7322;50.872;4.386;2022-12-07T16:11:41;2.20;;;1.53;;
14472;SDS011;7322;50.872;4.386;2022-12-07T16:14:10;1.80;;;1.37;;
14472;SDS011;7322;50.872;4.386;2022-12-07T16:16:37;2.07;;;1.50;;
14472;SDS011;7322;50.872;4.386;2022-12-07T16:19:06;2.37;;;1.50;;
14472;SDS011;7322;50.872;4.386;2022-12-07T16:21:33;3.03;;;1.93;;
14472;SDS011;7322;50.872;4.386;2022-12-07T16:24:03;2.87;;;1.70;;
14472;SDS011;7322;50.872;4.386;2022-12-07T16:26:31;1.67;;;1.40;;
14472;SDS011;7322;50.872;4.386;2022-12-07T16:28:58;1.90;;;1.37;;
14472;SDS011;7322;50.872;4.386;2022-12-07T16:31:27;1.90;;;1.40;;
14472;SDS011;7322;50.872;4.386;2022-12-07T16:33:57;1.53;;;1.30;;
14472;SDS011;7322;50.872;4.386;2022-12-07T16:36:24;1.50;;;1.40;;
14472;SDS011;7322;50.872;4.386;2022-12-07T16:38:52;2.30;;;1.70;;
14472;SDS011;7322;50.872;4.386;2022-12-07T16:41:27;2.27;;;1.50;;
14472;SDS011;7322;50.872;4.386;2022-12-07T16:46:42;1.47;;;1.30;;
14472;SDS011;7322;50.872;4.386;2022-12-07T16:51:42;2.57;;;1.70;;
14472;SDS011;7322;50.872;4.386;2022-12-07T16:54:19;1.50;;;1.40;;
14472;SDS011;7322;50.872;4.386;2022-12-07T16:56:58;2.27;;;1.40;;
14472;SDS011;7322;50.872;4.386;2022-12-07T17:02:18;3.07;;;1.70;;
14472;SDS011;7322;50.872;4.386;2022-12-07T17:04:46;2.03;;;1.30;;
14472;SDS011;7322;50.872;4.386;2022-12-07T17:07:21;1.97;;;1.43;;
14472;SDS011;7322;50.872;4.386;2022-12-07T17:09:52;2.67;;;1.70;;
14472;SDS011;7322;50.872;4.386;2022-12-07T17:12:33;1.73;;;1.23;;
14472;SDS011;7322;50.872;4.386;2022-12-07T17:15:02;2.47;;;1.60;;
14472;SDS011;7322;50.872;4.386;2022-12-07T17:18:00;2.40;;;1.40;;
14472;SDS011;7322;50.872;4.386;2022-12-07T17:20:27;2.10;;;1.50;;
14472;SDS011;7322;50.872;4.386;2022-12-07T17:23:07;3.03;;;1.70;;
14472;SDS011;7322;50.872;4.386;2022-12-07T17:25:35;2.23;;;1.60;;
14472;SDS011;7322;50.872;4.386;2022-12-07T17:28:06;1.57;;;1.47;;
14472;SDS011;7322;50.872;4.386;2022-12-07T17:30:34;1.47;;;1.37;;
14472;SDS011;7322;50.872;4.386;2022-12-07T17:33:02;2.50;;;1.60;;
14472;SDS011;7322;50.872;4.386;2022-12-07T17:35:30;2.33;;;1.70;;
14472;SDS011;7322;50.872;4.386;2022-12-07T17:37:57;2.20;;;1.80;;
14472;SDS011;7322;50.872;4.386;2022-12-07T17:40:24;2.70;;;1.60;;
14472;SDS011;7322;50.872;4.386;2022-12-07T17:42:52;1.83;;;1.60;;
14472;SDS011;7322;50.872;4.386;2022-12-07T17:45:21;3.07;;;1.80;;
14472;SDS011;7322;50.872;4.386;2022-12-07T17:47:48;1.90;;;1.37;;
14472;SDS011;7322;50.872;4.386;2022-12-07T17:50:17;1.57;;;1.30;;
14472;SDS011;7322;50.872;4.386;2022-12-07T17:53:07;2.87;;;1.67;;
14472;SDS011;7322;50.872;4.386;2022-12-07T17:55:36;2.00;;;1.50;;
14472;SDS011;7322;50.872;4.386;2022-12-07T17:58:05;2.40;;;1.50;;
14472;SDS011;7322;50.872;4.386;2022-12-07T18:00:34;1.83;;;1.30;;
14472;SDS011;7322;50.872;4.386;2022-12-07T18:03:03;1.97;;;1.67;;
14472;SDS011;7322;50.872;4.386;2022-12-07T18:05:36;1.70;;;1.53;;
14472;SDS011;7322;50.872;4.386;2022-12-07T18:08:04;2.03;;;1.20;;
14472;SDS011;7322;50.872;4.386;2022-12-07T18:10:34;2.30;;;1.50;;
14472;SDS011;7322;50.872;4.386;2022-12-07T18:13:01;1.80;;;1.50;;
14472;SDS011;7322;50.872;4.386;2022-12-07T18:15:55;2.53;;;1.60;;
14472;SDS011;7322;50.872;4.386;2022-12-07T18:18:23;2.53;;;1.40;;
14472;SDS011;7322;50.872;4.386;2022-12-07T18:20:50;1.87;;;1.50;;
14472;SDS011;7322;50.872;4.386;2022-12-07T18:23:19;2.13;;;1.40;;
14472;SDS011;7322;50.872;4.386;2022-12-07T18:25:48;2.47;;;1.50;;
14472;SDS011;7322;50.872;4.386;2022-12-07T18:28:16;2.67;;;1.70;;
14472;SDS011;7322;50.872;4.386;2022-12-07T18:33:19;2.37;;;1.30;;
14472;SDS011;7322;50.872;4.386;2022-12-07T18:35:53;3.60;;;1.80;;
14472;SDS011;7322;50.872;4.386;2022-12-07T18:38:20;2.33;;;1.30;;
14472;SDS011;7322;50.872;4.386;2022-12-07T18:40:49;1.60;;;1.40;;
14472;SDS011;7322;50.872;4.386;2022-12-07T18:43:22;2.50;;;1.50;;
14472;SDS011;7322;50.872;4.386;2022-12-07T18:45:50;1.90;;;1.40;;
14472;SDS011;7322;50.872;4.386;2022-12-07T18:48:18;2.43;;;1.67;;
14472;SDS011;7322;50.872;4.386;2022-12-07T18:50:57;2.37;;;1.50;;
14472;SDS011;7322;50.872;4.386;2022-12-07T18:53:25;2.47;;;1.50;;
14472;SDS011;7322;50.872;4.386;2022-12-07T18:55:59;1.47;;;1.30;;
14472;SDS011;7322;50.872;4.386;2022-12-07T18:58:27;1.23;;;1.13;;
14472;SDS011;7322;50.872;4.386;2022-12-07T19:00:57;2.77;;;1.57;;
14472;SDS011;7322;50.872;4.386;2022-12-07T19:03:26;2.63;;;1.33;;
14472;SDS011;7322;50.872;4.386;2022-12-07T19:05:55;2.10;;;1.60;;
14472;SDS011;7322;50.872;4.386;2022-12-07T19:08:24;1.93;;;1.50;;
14472;SDS011;7322;50.872;4.386;2022-12-07T19:11:02;2.83;;;1.60;;
14472;SDS011;7322;50.872;4.386;2022-12-07T19:13:51;1.97;;;1.67;;
14472;SDS011;7322;50.872;4.386;2022-12-07T19:16:27;2.87;;;1.80;;
14472;SDS011;7322;50.872;4.386;2022-12-07T19:19:35;3.43;;;1.50;;
14472;SDS011;7322;50.872;4.386;2022-12-07T19:22:06;5.60;;;1.90;;
14472;SDS011;7322;50.872;4.386;2022-12-07T19:24:49;2.20;;;1.90;;
14472;SDS011;7322;50.872;4.386;2022-12-07T19:29:59;3.63;;;1.50;;